Lenexa, Kansas
Current Conditions -  °F | °C
As of 3:53 AM on Thursday 23 Oct 2014 (Local Time) from KOJC Reporting Station
Overcast Overcast  
Wind Chill: 58°   Ceiling: 2200
Heat Index: 58°   Visibility: 10mi
Dew Point: 54°   Wind: 6mph
Humidity: 87%   Direction: 180°S
Pressure: 30.11"   Gusts: NA
Location:  38.96°N, 94.74°W
Report Text: KOJC 230853Z AUTO 18005KT 10SM BKN022 OVC034 14/12 A3011 RMK AO2 RAE01 SLP188 P0000 60000 T01440122 50003
Loading
Personal Weather Stations






























Interactive Weather Map
Tropical Storm Tracking
New forecast layout! Learn more

10-Day Weather Forecast

Advertisements
Track Severe Weather on mobile